Terminal Aerodrome Forecast
Issued by NWS Indianapolis, IN

Home | Current Version | Previous Version | Text Only | Print | Product List | Glossary On
Versions: 1 2 3 4 5 6 7 8 9 10 11 12 13 14 15 16 17 18 19 20 21 22 23 24 25 26 27 28 29 30 31 32
000
FTUS43 KIND 210520
TAFIND
TAF
KIND 210520Z 2106/2212 18011KT P6SM VCSH BKN090 OVC150
     FM210800 29010KT 4SM SHRA OVC015
     FM211000 32009KT 6SM SHRA OVC008
     FM211500 34008KT P6SM SHRA OVC010
     FM212000 01008KT P6SM VCSH OVC030
     FM220500 05009KT 4SM -SHRA OVC020=

USA.gov is the U.S. government's official web portal to all federal, state and local government web resources and services.